createdAt,value
2022-12-18T00:04:21.784Z,101899.56
2022-12-18T00:09:24.929Z,101902.25
2022-12-18T00:14:33.115Z,101913.22
2022-12-18T00:19:35.236Z,101938.69
2022-12-18T00:24:37.486Z,101957.22
2022-12-18T00:29:39.600Z,101970.19
2022-12-18T00:34:41.760Z,101983.66
2022-12-18T00:39:43.893Z,101973.75
2022-12-18T00:44:46.040Z,101975.25
2022-12-18T00:49:48.208Z,101987.69
2022-12-18T00:54:50.310Z,101992.50
2022-12-18T00:59:52.449Z,101994.31
2022-12-18T01:04:54.543Z,101995.63
2022-12-18T01:09:56.934Z,102013.63
2022-12-18T01:14:59.359Z,102014.59
2022-12-18T01:20:01.711Z,102009.59
2022-12-18T01:25:05.332Z,102030.06
2022-12-18T01:30:08.403Z,102030.75
2022-12-18T01:35:10.564Z,102023.59
2022-12-18T01:40:12.964Z,102027.38
2022-12-18T01:45:14.985Z,102035.66
2022-12-18T01:50:40.513Z,102039.25
2022-12-18T01:55:47.719Z,102049.09
2022-12-18T02:00:49.916Z,102058.16
2022-12-18T02:06:16.029Z,102054.28
2022-12-18T02:11:30.345Z,102057.63
2022-12-18T02:17:02.138Z,102069.44
2022-12-18T02:22:13.493Z,102084.13
2022-12-18T02:27:16.368Z,102082.41
2022-12-18T02:32:27.996Z,102089.03
2022-12-18T02:37:31.863Z,102097.59
2022-12-18T02:42:34.038Z,102097.47
2022-12-18T02:47:40.234Z,102097.19
2022-12-18T02:53:10.307Z,102104.72
2022-12-18T02:58:17.965Z,102120.25
2022-12-18T03:03:30.300Z,102124.53
2022-12-18T03:08:42.856Z,102132.31
2022-12-18T03:13:57.165Z,102129.78
2022-12-18T03:19:04.048Z,102131.00
2022-12-18T03:24:10.598Z,102134.56
2022-12-18T03:29:42.183Z,102145.47
2022-12-18T03:34:47.502Z,102148.97
2022-12-18T03:39:49.804Z,102165.41
2022-12-18T03:45:06.238Z,102174.75
2022-12-18T03:50:19.079Z,102176.28
2022-12-18T03:55:23.690Z,102175.31
2022-12-18T04:00:25.916Z,102180.09
2022-12-18T04:05:29.653Z,102180.13
2022-12-18T04:10:31.839Z,102188.59
2022-12-18T04:15:37.944Z,102195.63
2022-12-18T04:20:40.143Z,102196.75
2022-12-18T04:25:42.210Z,102197.66
2022-12-18T04:30:44.355Z,102196.37
2022-12-18T04:35:47.630Z,102199.06
2022-12-18T04:40:49.809Z,102202.16
2022-12-18T04:45:51.944Z,102222.25
2022-12-18T04:50:54.096Z,102215.16
2022-12-18T04:56:05.494Z,102233.13
2022-12-18T05:01:08.594Z,102245.69
2022-12-18T05:06:11.019Z,102235.88
2022-12-18T05:11:16.777Z,102247.34
2022-12-18T05:16:18.856Z,102249.91
2022-12-18T05:21:20.984Z,102260.03
2022-12-18T05:26:23.234Z,102257.16
2022-12-18T05:31:25.434Z,102271.63
2022-12-18T05:36:27.535Z,102281.97
2022-12-18T05:41:29.842Z,102286.69
2022-12-18T05:46:31.981Z,102287.84
2022-12-18T05:51:34.050Z,102286.81
2022-12-18T05:56:36.140Z,102291.00
2022-12-18T06:01:38.358Z,102300.13
2022-12-18T06:06:40.481Z,102310.28
2022-12-18T06:11:42.716Z,102309.81
2022-12-18T06:16:45.233Z,102319.44
2022-12-18T06:21:48.085Z,102311.50
2022-12-18T06:26:50.149Z,102312.44
2022-12-18T06:31:52.269Z,102330.38
2022-12-18T06:36:54.389Z,102334.75
2022-12-18T06:41:56.765Z,102342.16
2022-12-18T06:46:58.885Z,102348.06
2022-12-18T06:52:00.929Z,102362.19
2022-12-18T06:57:03.073Z,102361.28
2022-12-18T07:02:05.751Z,102379.03
2022-12-18T07:07:07.927Z,102386.66
2022-12-18T07:12:10.529Z,102396.88
2022-12-18T07:17:13.014Z,102402.13
2022-12-18T07:22:15.140Z,102407.09
2022-12-18T07:27:17.497Z,102414.34
2022-12-18T07:32:20.237Z,102426.53
2022-12-18T07:37:22.329Z,102432.16
2022-12-18T07:42:33.287Z,102444.78
2022-12-18T07:47:37.130Z,102444.31
2022-12-18T07:52:39.200Z,102459.25
2022-12-18T07:57:50.360Z,102461.19
2022-12-18T08:02:53.575Z,102473.47
2022-12-18T08:07:56.002Z,102475.56
2022-12-18T08:13:03.110Z,102477.97
2022-12-18T08:18:12.711Z,102493.63
2022-12-18T08:23:16.290Z,102496.72
2022-12-18T08:28:18.479Z,102499.03
2022-12-18T08:33:20.548Z,102504.47
2022-12-18T08:38:23.872Z,102504.59
2022-12-18T08:43:44.631Z,102507.03
2022-12-18T08:48:46.856Z,102495.81
2022-12-18T08:53:49.004Z,102495.69
2022-12-18T08:58:55.376Z,102509.97
2022-12-18T09:03:57.584Z,102514.06
2022-12-18T09:08:59.794Z,102516.88
2022-12-18T09:14:02.712Z,102539.59
2022-12-18T09:19:06.774Z,102534.87
2022-12-18T09:24:13.518Z,102544.34
2022-12-18T09:29:18.958Z,102535.03
2022-12-18T09:34:22.877Z,102536.47
2022-12-18T09:39:24.985Z,102530.38
2022-12-18T09:44:31.943Z,102527.00
2022-12-18T09:49:40.401Z,102527.03
2022-12-18T09:54:47.757Z,102537.38
2022-12-18T10:00:19.584Z,102534.91
2022-12-18T10:05:40.196Z,102519.53
2022-12-18T10:10:53.494Z,102500.16
2022-12-18T10:16:01.589Z,102495.50
2022-12-18T10:21:22.684Z,102489.78
2022-12-18T10:26:26.064Z,102484.88
2022-12-18T10:31:28.577Z,102480.34
2022-12-18T10:36:31.018Z,102475.72
2022-12-18T10:41:33.389Z,102469.94
2022-12-18T10:46:35.882Z,102464.78
2022-12-18T10:51:39.088Z,102479.59
2022-12-18T10:56:43.115Z,102481.56
2022-12-18T11:01:48.090Z,102472.22
2022-12-18T11:06:56.692Z,102474.47
2022-12-18T11:12:07.108Z,102459.66
2022-12-18T11:17:26.455Z,102461.59
2022-12-18T11:22:48.823Z,102452.78
2022-12-18T11:28:03.542Z,102440.97
2022-12-18T11:33:11.769Z,102461.06
2022-12-18T11:38:24.365Z,102460.91
2022-12-18T11:43:32.990Z,102442.56
2022-12-18T11:48:46.374Z,102444.75
2022-12-18T11:53:48.477Z,102439.44
2022-12-18T11:59:32.050Z,102441.16
2022-12-18T12:04:42.692Z,102432.16
2022-12-18T12:09:50.756Z,102435.22
2022-12-18T12:15:14.252Z,102435.31
2022-12-18T12:20:53.486Z,102431.06
2022-12-18T12:26:07.710Z,102423.84
2022-12-18T12:31:46.657Z,102425.22
2022-12-18T12:37:08.894Z,102431.31
2022-12-18T12:42:46.508Z,102434.94
2022-12-18T12:47:52.062Z,102425.88
2022-12-18T12:52:56.861Z,102437.97
2022-12-18T12:58:15.600Z,102440.31
2022-12-18T13:03:45.129Z,102453.97
2022-12-18T13:09:01.675Z,102465.69
2022-12-18T13:14:03.919Z,102473.87
2022-12-18T13:19:27.564Z,102462.38
2022-12-18T13:24:32.405Z,102474.22
2022-12-18T13:29:46.593Z,102476.66
2022-12-18T13:34:50.187Z,102489.19
2022-12-18T13:39:52.286Z,102490.28
2022-12-18T13:44:54.472Z,102496.78
2022-12-18T13:49:58.137Z,102494.53
2022-12-18T13:55:03.419Z,102494.66
2022-12-18T14:00:26.814Z,102497.38
2022-12-18T14:05:33.330Z,102500.44
2022-12-18T14:10:47.974Z,102511.47
2022-12-18T14:15:52.279Z,102513.44
2022-12-18T14:20:58.541Z,102513.00
2022-12-18T14:26:25.626Z,102516.91
2022-12-18T14:31:31.038Z,102510.19
2022-12-18T14:36:33.138Z,102523.38
2022-12-18T14:41:35.473Z,102524.06
2022-12-18T14:46:39.371Z,102532.53
2022-12-18T14:51:49.679Z,102547.06
2022-12-18T14:57:16.642Z,102553.72
2022-12-18T15:02:29.770Z,102568.66
2022-12-18T15:07:48.667Z,102565.69
2022-12-18T15:12:56.978Z,102570.62
2022-12-18T15:18:01.003Z,102598.09
2022-12-18T15:23:03.186Z,102596.03
2022-12-18T15:28:17.047Z,102599.66
2022-12-18T15:33:27.746Z,102606.91
2022-12-18T15:38:30.123Z,102606.56
2022-12-18T15:43:35.314Z,102610.19
2022-12-18T15:48:46.662Z,102622.16
2022-12-18T15:53:51.203Z,102631.09
2022-12-18T15:58:53.279Z,102636.53
2022-12-18T16:03:56.092Z,102644.63
2022-12-18T16:08:58.313Z,102661.94
2022-12-18T16:14:00.794Z,102658.53
2022-12-18T16:19:03.154Z,102665.34
2022-12-18T16:24:05.821Z,102660.81
2022-12-18T16:29:07.928Z,102676.66
2022-12-18T16:34:28.802Z,102685.16
2022-12-18T16:39:32.036Z,102688.09
2022-12-18T16:44:35.309Z,102682.22
2022-12-18T16:49:38.607Z,102685.97
2022-12-18T16:54:43.955Z,102704.06
2022-12-18T16:59:47.134Z,102695.13
2022-12-18T17:04:49.284Z,102696.78
2022-12-18T17:09:51.634Z,102692.34
2022-12-18T17:14:53.735Z,102676.88
2022-12-18T17:19:55.922Z,102684.78
2022-12-18T17:24:58.077Z,102674.72
2022-12-18T17:30:00.161Z,102688.00
2022-12-18T17:35:06.970Z,102684.06
2022-12-18T17:40:10.196Z,102687.69
2022-12-18T17:45:12.353Z,102691.94
2022-12-18T17:50:14.636Z,102691.84
2022-12-18T17:55:16.900Z,102711.91
2022-12-18T18:00:21.151Z,102706.00
2022-12-18T18:05:23.264Z,102697.25
2022-12-18T18:10:25.459Z,102691.19
2022-12-18T18:15:27.573Z,102705.63
2022-12-18T18:20:30.553Z,102700.66
2022-12-18T18:25:37.440Z,102712.38
2022-12-18T18:30:39.896Z,102715.19
2022-12-18T18:35:53.732Z,102703.34
2022-12-18T18:41:05.660Z,102722.22
2022-12-18T18:46:07.875Z,102726.16
2022-12-18T18:51:14.678Z,102733.00
2022-12-18T19:01:50.612Z,102748.34
2022-12-18T19:06:52.946Z,102750.97
2022-12-18T19:12:15.425Z,102748.94
2022-12-18T19:17:17.580Z,102752.63
2022-12-18T19:22:19.942Z,102757.47
2022-12-18T19:27:22.113Z,102758.09
2022-12-18T19:32:24.354Z,102764.47
2022-12-18T19:37:26.882Z,102780.13
2022-12-18T19:42:35.017Z,102779.16
2022-12-18T19:47:37.721Z,102780.41
2022-12-18T19:52:39.850Z,102796.78
2022-12-18T19:57:42.063Z,102793.34
2022-12-18T20:02:44.351Z,102799.59
2022-12-18T20:07:46.527Z,102794.59
2022-12-18T20:12:48.618Z,102799.56
2022-12-18T20:17:50.719Z,102807.16
2022-12-18T20:22:53.030Z,102808.28
2022-12-18T20:27:55.265Z,102813.84
2022-12-18T20:32:57.407Z,102826.34
2022-12-18T20:37:59.524Z,102823.88
2022-12-18T20:43:03.139Z,102824.75
2022-12-18T20:48:05.400Z,102833.69
2022-12-18T20:53:07.507Z,102818.66
2022-12-18T20:58:09.733Z,102840.78
2022-12-18T21:03:12.947Z,102834.78
2022-12-18T21:08:15.263Z,102848.34
2022-12-18T21:13:17.492Z,102849.09
2022-12-18T21:18:20.746Z,102854.06
2022-12-18T21:23:23.060Z,102853.97
2022-12-18T21:28:25.240Z,102848.31
2022-12-18T21:33:27.349Z,102850.91
2022-12-18T21:38:29.496Z,102846.84
2022-12-18T21:43:50.412Z,102843.28
2022-12-18T21:48:52.498Z,102842.53
2022-12-18T21:53:54.644Z,102826.97
2022-12-18T21:58:57.466Z,102838.22
2022-12-18T22:03:59.765Z,102836.19
2022-12-18T22:09:02.077Z,102833.13
2022-12-18T22:14:04.227Z,102834.69
2022-12-18T22:19:06.678Z,102838.34
2022-12-18T22:24:13.795Z,102848.94
2022-12-18T22:29:37.468Z,102834.47
2022-12-18T22:34:39.664Z,102841.00
2022-12-18T22:39:42.290Z,102833.28
2022-12-18T22:44:44.778Z,102842.72
2022-12-18T22:49:46.925Z,102855.78
2022-12-18T22:54:48.988Z,102852.50
2022-12-18T22:59:51.785Z,102850.66
2022-12-18T23:04:53.879Z,102866.63
2022-12-18T23:09:59.581Z,102865.78
2022-12-18T23:15:04.887Z,102865.44
2022-12-18T23:20:07.421Z,102866.25
2022-12-18T23:25:09.839Z,102874.47
2022-12-18T23:30:12.519Z,102871.75
2022-12-18T23:35:15.772Z,102865.22
2022-12-18T23:40:18.717Z,102858.09
2022-12-18T23:45:20.813Z,102864.44
2022-12-18T23:50:28.941Z,102857.66
2022-12-18T23:55:32.115Z,102858.84
